KBIL/BIL METAR and TAF weather

Enter ICAO airport designator
Station Type Date Time Source
KBIL METAR 2020/04/06 16:53 UTC NOAA

KBIL 061653Z 26010KT 10SM FEW060 OVC100 12/01 A2967 RMK AO2 SLP043 T01170011


Station Type Date Time Source
KBIL Decoded METAR 2020/04/06 16:53 UTC NOAA

LOGAN INTERNATIONAL AIRPORT, MT, United States (KBIL) 45-49N 108-33W 1091M
Apr 06, 2020 - 12:53 PM EDT / 2020.04.06 1653 UTC
Wind: from the W (260 degrees) at 12 MPH (10 KT):0
Visibility: 10 mile(s):0
Sky conditions: overcast
Temperature: 53.1 F (11.7 C)
Dew Point: 34.0 F (1.1 C)
Relative Humidity: 48%
Pressure (altimeter): 29.67 in. Hg (1004 hPa)
ob: KBIL 061653Z 26010KT 10SM FEW060 OVC100 12/01 A2967 RMK AO2 SLP043 T01170011
cycle: 17

Station Type Date Time Source
KBIL TAF 2020/04/06 18:24 UTC NOAA

TAF KBIL 061722Z 0618/0718 26010KT P6SM FEW060 OVC100
FM062100 28012G20KT P6SM VCTS BKN040CB BKN100
FM070200 25006KT P6SM BKN050
FM071700 27014KT P6SM SCT050

Example: see airport list